Time;durP1;ratioP1;P1;durP2;ratioP2;P2;SDS_P1;SDS_P2;PMS_P1;PMS_P2;Temp;Humidity;BMP_temperature;BMP_pressure;BME280_temperature;BME280_humidity;BME280_pressure;Samples;Min_cycle;Max_cycle;Signal;HPM_P1;HPM_P2
2021/12/19 00:00:46;;;;;;;22.75;7.10;;;28.10;87.40;;;;;;5045923;28;20297;-53
2021/12/19 00:08:49;;;;;;;14.40;7.03;;;28.00;88.30;;;;;;5065936;28;20020;-47
2021/12/19 00:11:18;;;;;;;11.50;6.90;;;27.90;88.20;;;;;;5066197;28;20048;-50
2021/12/19 00:13:45;;;;;;;14.98;6.93;;;27.90;88.10;;;;;;5065871;28;20020;-48
2021/12/19 00:16:13;;;;;;;16.63;7.35;;;27.90;88.10;;;;;;5047970;28;20041;-49
2021/12/19 00:18:43;;;;;;;13.95;6.63;;;27.90;88.10;;;;;;5064339;28;20051;-48
2021/12/19 00:21:11;;;;;;;12.15;6.60;;;27.90;88.10;;;;;;5059457;28;20021;-47
2021/12/19 00:23:39;;;;;;;61.20;8.27;;;27.90;87.80;;;;;;5054367;28;20022;-47
2021/12/19 00:26:06;;;;;;;18.77;6.30;;;27.90;87.60;;;;;;5045848;28;20044;-49
2021/12/19 00:28:33;;;;;;;20.02;14.55;;;27.80;87.60;;;;;;5045827;28;20181;-52
2021/12/19 00:31:00;;;;;;;16.15;9.30;;;27.80;87.70;;;;;;5056974;28;20039;-45
2021/12/19 00:33:27;;;;;;;16.88;10.32;;;27.80;87.60;;;;;;5045783;28;20316;-47
2021/12/19 00:35:54;;;;;;;10.75;6.22;;;27.80;87.60;;;;;;5054307;28;20024;-45
2021/12/19 00:38:20;;;;;;;15.63;6.03;;;27.80;87.30;;;;;;5062347;28;20090;-49
2021/12/19 00:40:47;;;;;;;17.15;6.63;;;27.70;87.20;;;;;;5061521;28;20021;-57
2021/12/19 00:43:35;;;;;;;15.85;7.20;;;27.70;87.00;;;;;;5065073;28;20364;-46
2021/12/19 00:46:07;;;;;;;12.35;6.70;;;27.80;87.10;;;;;;5065608;28;20029;-54
2021/12/19 00:48:36;;;;;;;12.68;6.20;;;27.70;86.80;;;;;;5065202;28;20066;-51
2021/12/19 00:51:05;;;;;;;13.50;6.50;;;27.80;86.80;;;;;;5065214;28;20028;-50
2021/12/19 00:53:31;;;;;;;14.82;5.85;;;27.80;86.70;;;;;;5065388;28;20021;-50
2021/12/19 00:55:58;;;;;;;12.15;5.38;;;27.80;86.50;;;;;;5065237;28;20029;-48
2021/12/19 00:58:25;;;;;;;13.23;5.57;;;27.80;86.30;;;;;;5064328;28;20013;-54
2021/12/19 01:00:51;;;;;;;10.75;5.45;;;27.80;86.10;;;;;;5062169;28;20029;-52
2021/12/19 01:03:19;;;;;;;14.88;5.95;;;27.80;86.00;;;;;;5063035;28;20013;-44
2021/12/19 01:05:46;;;;;;;9.55;5.13;;;27.80;85.80;;;;;;5063120;28;20060;-53
2021/12/19 01:08:13;;;;;;;15.55;5.28;;;27.80;85.70;;;;;;5063625;28;20300;-51
2021/12/19 01:10:44;;;;;;;11.40;5.82;;;27.80;86.00;;;;;;5064011;28;20089;-48
2021/12/19 01:13:12;;;;;;;11.80;5.47;;;27.80;85.40;;;;;;5062682;28;20029;-49
2021/12/19 01:15:38;;;;;;;11.73;5.55;;;27.80;85.20;;;;;;5064677;28;20033;-46
2021/12/19 01:18:06;;;;;;;14.57;5.78;;;27.80;84.90;;;;;;5064452;28;20305;-48
2021/12/19 01:20:36;;;;;;;11.07;6.10;;;27.80;85.00;;;;;;5064697;28;20328;-51
2021/12/19 01:23:03;;;;;;;10.25;5.90;;;27.80;84.80;;;;;;5064531;28;20016;-50
2021/12/19 01:25:30;;;;;;;17.05;6.43;;;27.80;84.70;;;;;;5064465;28;20036;-48
2021/12/19 01:27:57;;;;;;;12.88;6.07;;;27.80;84.30;;;;;;5064346;28;20348;-48
2021/12/19 01:30:24;;;;;;;15.35;7.65;;;27.70;84.00;;;;;;5056355;28;20030;-44
2021/12/19 01:32:51;;;;;;;14.90;7.63;;;27.70;83.50;;;;;;5063560;28;20042;-42
2021/12/19 01:35:20;;;;;;;12.70;7.15;;;27.70;83.00;;;;;;5064273;28;20096;-45
2021/12/19 01:37:47;;;;;;;12.98;7.18;;;27.60;83.40;;;;;;5064302;28;20071;-48
2021/12/19 01:40:17;;;;;;;11.68;6.32;;;27.60;83.40;;;;;;5064084;28;20298;-48
2021/12/19 01:42:46;;;;;;;12.35;6.53;;;27.70;83.70;;;;;;5064591;28;20084;-51
2021/12/19 01:45:15;;;;;;;10.63;6.13;;;27.70;83.60;;;;;;5063986;28;20054;-48
2021/12/19 01:47:42;;;;;;;13.88;6.70;;;27.70;83.60;;;;;;5046217;28;20198;-43
2021/12/19 01:50:10;;;;;;;13.15;6.43;;;27.70;83.50;;;;;;5044373;28;20209;-51
2021/12/19 01:52:37;;;;;;;12.55;5.90;;;27.70;83.30;;;;;;5062997;28;20305;-49
2021/12/19 01:55:04;;;;;;;45.90;6.85;;;27.70;83.40;;;;;;5063723;28;20021;-52
2021/12/19 01:57:32;;;;;;;21.40;6.93;;;27.70;83.30;;;;;;5046302;28;20029;-47
2021/12/19 01:59:58;;;;;;;25.52;6.45;;;27.70;83.20;;;;;;5063782;28;20077;-54
2021/12/19 02:02:25;;;;;;;12.02;6.18;;;27.70;83.10;;;;;;5063725;28;20044;-45
2021/12/19 02:04:51;;;;;;;11.70;6.55;;;27.70;83.00;;;;;;5063771;28;20020;-47
2021/12/19 02:07:18;;;;;;;12.32;6.10;;;27.70;83.00;;;;;;5063830;28;20025;-46
2021/12/19 02:09:45;;;;;;;13.52;6.68;;;27.60;82.80;;;;;;5063648;28;20228;-54
2021/12/19 02:12:12;;;;;;;13.02;8.65;;;27.60;82.70;;;;;;5064003;28;20304;-46
2021/12/19 02:14:39;;;;;;;15.60;8.57;;;27.60;82.70;;;;;;5063688;28;20032;-49
2021/12/19 02:17:06;;;;;;;15.52;9.40;;;27.60;82.70;;;;;;5063886;28;20190;-50
2021/12/19 02:19:33;;;;;;;14.52;8.65;;;27.70;82.60;;;;;;5063778;28;20013;-43
2021/12/19 02:22:01;;;;;;;13.05;8.57;;;27.60;82.50;;;;;;5063964;28;20025;-49
2021/12/19 02:24:27;;;;;;;13.60;8.32;;;27.60;82.30;;;;;;5063573;28;20024;-51
2021/12/19 02:26:54;;;;;;;14.45;8.93;;;27.60;82.30;;;;;;5063575;28;20048;-52
2021/12/19 02:29:24;;;;;;;14.00;9.00;;;27.60;82.10;;;;;;5063661;28;20025;-43
2021/12/19 02:31:50;;;;;;;12.60;9.25;;;27.60;82.10;;;;;;5063886;28;20033;-54
2021/12/19 02:34:22;;;;;;;17.83;9.73;;;27.60;82.00;;;;;;5063414;28;20025;-48
2021/12/19 02:39:50;;;;;;;14.95;9.25;;;27.60;82.00;;;;;;5063342;28;20036;-48
2021/12/19 02:50:31;;;;;;;14.07;8.35;;;27.50;81.80;;;;;;5063316;28;20024;-51
2021/12/19 02:52:59;;;;;;;13.43;8.63;;;27.50;81.90;;;;;;5063048;28;20321;-49
2021/12/19 02:55:25;;;;;;;13.82;8.82;;;27.50;81.90;;;;;;5062152;28;20051;-45
2021/12/19 02:57:52;;;;;;;15.10;9.02;;;27.50;81.80;;;;;;5055669;28;20021;-47
2021/12/19 03:00:25;;;;;;;14.43;8.18;;;27.60;81.80;;;;;;5054150;28;20133;-48
2021/12/19 03:02:51;;;;;;;;;;;27.60;81.80;;;;;;5054347;28;20099;-46
2021/12/19 03:05:18;;;;;;;13.95;7.80;;;27.60;81.80;;;;;;5043397;28;20181;-43
2021/12/19 03:07:45;;;;;;;18.02;8.02;;;27.50;81.80;;;;;;5050168;28;20258;-49
2021/12/19 03:18:32;;;;;;;11.43;5.57;;;27.50;81.70;;;;;;5058877;28;20248;-46
2021/12/19 03:20:59;;;;;;;10.93;5.13;;;27.50;81.70;;;;;;5056486;28;20048;-49
2021/12/19 03:23:26;;;;;;;12.07;5.82;;;27.50;81.60;;;;;;5052516;28;20209;-51
2021/12/19 03:25:52;;;;;;;12.77;5.88;;;27.50;81.50;;;;;;5045225;28;20313;-45
2021/12/19 03:28:19;;;;;;;11.27;5.60;;;27.50;81.60;;;;;;5064343;28;20041;-46
2021/12/19 03:30:48;;;;;;;13.82;6.75;;;27.40;81.60;;;;;;5066242;28;20032;-50
2021/12/19 03:33:15;;;;;;;9.48;6.10;;;27.40;81.60;;;;;;5066229;28;20341;-48
2021/12/19 03:35:42;;;;;;;10.57;6.10;;;27.40;81.70;;;;;;5066322;28;20100;-51
2021/12/19 03:38:12;;;;;;;10.98;6.20;;;27.40;81.70;;;;;;5048345;28;20236;-51
2021/12/19 03:40:44;;;;;;;10.43;6.13;;;27.40;81.70;;;;;;5065998;28;20088;-46
2021/12/19 03:43:17;;;;;;;9.40;5.80;;;27.40;81.60;;;;;;5065683;28;20028;-49
2021/12/19 03:45:46;;;;;;;10.93;6.88;;;27.40;82.10;;;;;;5066011;28;20036;-44
2021/12/19 03:48:15;;;;;;;16.17;8.40;;;27.40;81.50;;;;;;5066265;28;20331;-45
2021/12/19 03:50:46;;;;;;;19.58;13.85;;;27.40;81.50;;;;;;5065988;28;20036;-51
2021/12/19 03:53:15;;;;;;;33.65;23.98;;;27.30;81.40;;;;;;5063027;28;20021;-49
2021/12/19 03:55:42;;;;;;;33.15;24.58;;;27.30;81.30;;;;;;5056121;28;20082;-48
2021/12/19 03:58:09;;;;;;;23.00;17.85;;;27.40;81.40;;;;;;5051095;28;20021;-49
2021/12/19 04:00:36;;;;;;;23.27;16.40;;;27.30;81.30;;;;;;5065921;28;20025;-48
2021/12/19 04:03:07;;;;;;;18.52;12.93;;;27.30;81.20;;;;;;5065816;28;20075;-43
2021/12/19 04:05:34;;;;;;;18.00;11.68;;;27.30;81.20;;;;;;5054783;28;20029;-50
2021/12/19 04:08:00;;;;;;;17.08;9.60;;;27.30;81.20;;;;;;5045504;28;20025;-56
2021/12/19 04:10:28;;;;;;;13.57;8.75;;;27.30;81.10;;;;;;5050231;28;20209;-44
2021/12/19 04:12:55;;;;;;;14.80;7.95;;;27.30;81.30;;;;;;5059076;28;20084;-51
2021/12/19 04:15:23;;;;;;;15.27;7.65;;;27.30;81.20;;;;;;5055760;28;20225;-45
2021/12/19 04:17:50;;;;;;;11.90;6.68;;;27.30;81.10;;;;;;5062106;28;20356;-44
2021/12/19 04:20:20;;;;;;;15.43;6.65;;;27.30;81.00;;;;;;5062918;28;20200;-47
2021/12/19 04:22:50;;;;;;;15.30;6.68;;;27.30;80.90;;;;;;5055000;28;20074;-48
2021/12/19 04:25:17;;;;;;;18.17;9.02;;;27.30;80.80;;;;;;5055425;28;20244;-47
2021/12/19 04:27:45;;;;;;;15.45;8.40;;;27.30;80.60;;;;;;5056848;28;20040;-47
2021/12/19 04:30:24;;;;;;;13.10;7.80;;;27.30;80.60;;;;;;5061734;28;20321;-54
2021/12/19 04:35:31;;;;;;;13.02;6.50;;;27.20;80.40;;;;;;5065334;28;20092;-48
2021/12/19 04:38:40;;;;;;;10.23;5.70;;;27.20;80.30;;;;;;5065217;28;20088;-46
2021/12/19 04:52:29;;;;;;;13.70;5.13;;;27.20;80.00;;;;;;5062499;28;20124;-50
2021/12/19 04:57:56;;;;;;;12.77;6.85;;;27.20;79.80;;;;;;5003300;28;20026;-44
2021/12/19 05:00:04;;;;;;;11.38;7.38;;;27.20;79.90;;;;;;5053103;28;20253;-45
2021/12/19 05:15:48;;;;;;;18.55;12.63;;;27.10;79.60;;;;;;5064630;28;20020;-51
2021/12/19 05:18:14;;;;;;;22.55;12.85;;;27.10;79.70;;;;;;5062705;28;20017;-45
2021/12/19 05:20:51;;;;;;;18.48;11.38;;;27.10;79.80;;;;;;5064736;28;20028;-53
2021/12/19 05:29:30;;;;;;;22.25;15.35;;;27.10;79.80;;;;;;5003027;28;20038;-43
2021/12/19 05:31:57;;;;;;;21.58;13.65;;;27.00;79.70;;;;;;5042284;28;20340;-48
2021/12/19 05:34:25;;;;;;;19.23;12.07;;;27.00;79.80;;;;;;5044275;28;20214;-57
2021/12/19 05:45:13;;;;;;;15.77;8.77;;;27.00;79.80;;;;;;5058701;28;20206;-44
2021/12/19 05:47:42;;;;;;;27.27;15.75;;;27.00;79.80;;;;;;5063490;28;20017;-46
2021/12/19 05:50:10;;;;;;;25.00;15.45;;;27.00;79.80;;;;;;5064097;28;20305;-50
2021/12/19 05:52:37;;;;;;;19.02;12.40;;;27.00;79.90;;;;;;5063919;28;20318;-49
2021/12/19 05:55:04;;;;;;;21.13;12.10;;;27.00;79.80;;;;;;5063772;28;20256;-50
2021/12/19 05:57:31;;;;;;;20.40;14.15;;;26.90;79.80;;;;;;5063508;28;20021;-44
2021/12/19 05:59:58;;;;;;;22.20;12.73;;;26.90;79.80;;;;;;5063859;28;20017;-43
2021/12/19 06:02:26;;;;;;;14.75;10.52;;;26.90;79.70;;;;;;5063763;28;20047;-53
2021/12/19 06:04:53;;;;;;;14.55;8.30;;;27.00;79.90;;;;;;5063348;28;20088;-49
2021/12/19 06:07:19;;;;;;;15.75;8.45;;;26.90;79.90;;;;;;5063831;28;20032;-47
2021/12/19 06:09:46;;;;;;;15.18;9.50;;;26.90;80.00;;;;;;5063682;28;20024;-46
2021/12/19 06:12:13;;;;;;;16.52;8.93;;;26.90;80.00;;;;;;5063831;28;20024;-47
2021/12/19 06:14:39;;;;;;;15.60;8.57;;;26.90;79.90;;;;;;5063371;28;20088;-49
2021/12/19 06:17:06;;;;;;;11.05;6.80;;;26.90;79.90;;;;;;5063059;28;20029;-42
2021/12/19 06:19:36;;;;;;;11.07;6.25;;;26.90;79.80;;;;;;5051137;28;20017;-50
2021/12/19 06:22:06;;;;;;;10.77;6.07;;;26.90;79.90;;;;;;5057365;28;20028;-47
2021/12/19 06:24:34;;;;;;;11.65;7.20;;;26.90;79.90;;;;;;5062060;28;20013;-47
2021/12/19 06:27:01;;;;;;;15.48;10.25;;;26.90;79.80;;;;;;5063185;28;20021;-44
2021/12/19 06:29:29;;;;;;;22.67;14.80;;;26.90;79.90;;;;;;5059604;28;20043;-46
2021/12/19 06:31:56;;;;;;;20.60;16.08;;;26.90;79.90;;;;;;5061173;28;20071;-52
2021/12/19 06:34:23;;;;;;;23.92;13.82;;;26.90;79.90;;;;;;5053659;28;20096;-42
2021/12/19 06:36:53;;;;;;;19.67;12.85;;;26.90;80.50;;;;;;5054581;28;20032;-42
2021/12/19 06:39:21;;;;;;;17.52;12.63;;;26.90;79.90;;;;;;5063368;28;20017;-53
2021/12/19 06:41:48;;;;;;;13.48;10.82;;;26.90;80.10;;;;;;5063598;28;20178;-48
2021/12/19 06:44:15;;;;;;;12.70;8.80;;;26.90;80.30;;;;;;5063398;28;20301;-51
2021/12/19 06:46:42;;;;;;;13.65;7.68;;;26.90;80.40;;;;;;5063560;28;20033;-46
2021/12/19 06:49:08;;;;;;;9.73;6.78;;;26.80;80.30;;;;;;5063038;28;20066;-43
2021/12/19 06:51:35;;;;;;;10.90;6.03;;;26.80;80.30;;;;;;5063529;28;20025;-42
2021/12/19 06:54:03;;;;;;;10.60;6.47;;;26.80;80.30;;;;;;5062954;28;20017;-49
2021/12/19 06:56:30;;;;;;;11.50;6.25;;;26.80;80.20;;;;;;5057466;28;20037;-44
2021/12/19 06:58:57;;;;;;;10.77;5.57;;;26.80;80.20;;;;;;5065008;28;20032;-41
2021/12/19 07:01:23;;;;;;;10.35;5.70;;;26.80;80.30;;;;;;5067226;28;20025;-44
2021/12/19 07:03:50;;;;;;;9.63;5.38;;;26.80;80.30;;;;;;5066579;28;20088;-43
2021/12/19 07:06:16;;;;;;;9.57;6.25;;;26.80;80.30;;;;;;5067114;28;20033;-44
2021/12/19 07:08:43;;;;;;;9.27;6.15;;;26.80;80.40;;;;;;5066927;28;20086;-44
2021/12/19 07:11:09;;;;;;;12.00;6.25;;;26.70;80.40;;;;;;5063661;28;20048;-47
2021/12/19 07:13:36;;;;;;;10.30;5.60;;;26.70;80.40;;;;;;5059122;28;20216;-44
2021/12/19 07:16:03;;;;;;;13.95;5.50;;;26.70;80.30;;;;;;5057529;28;20366;-52
2021/12/19 07:18:30;;;;;;;8.82;4.93;;;26.80;80.70;;;;;;5059338;28;20217;-55
2021/12/19 07:20:56;;;;;;;11.15;4.95;;;26.70;80.60;;;;;;5057055;28;20063;-48
2021/12/19 07:23:23;;;;;;;9.77;4.93;;;26.70;80.50;;;;;;5059803;28;20020;-44
2021/12/19 07:25:50;;;;;;;11.57;4.68;;;26.70;80.60;;;;;;5048100;28;20309;-46
2021/12/19 07:28:17;;;;;;;8.90;4.82;;;26.80;80.70;;;;;;5056050;28;20053;-51
2021/12/19 07:30:44;;;;;;;9.38;5.10;;;26.80;80.60;;;;;;5064282;28;20217;-41
2021/12/19 07:33:12;;;;;;;10.65;4.75;;;26.70;80.50;;;;;;5065920;28;20021;-49
2021/12/19 07:35:41;;;;;;;8.75;5.63;;;26.70;80.50;;;;;;5065522;28;20036;-43
2021/12/19 07:38:11;;;;;;;8.30;5.85;;;26.70;80.60;;;;;;5065479;28;20024;-40
2021/12/19 07:40:39;;;;;;;9.65;6.70;;;26.70;80.60;;;;;;5065535;28;20067;-49
2021/12/19 07:43:10;;;;;;;12.32;7.70;;;26.70;80.60;;;;;;5064995;28;20123;-45
2021/12/19 07:45:37;;;;;;;12.27;8.32;;;26.70;80.60;;;;;;5065726;28;20035;-49
2021/12/19 07:48:05;;;;;;;12.43;7.53;;;26.70;80.50;;;;;;5064656;28;20013;-46
2021/12/19 07:50:32;;;;;;;13.43;7.60;;;26.70;80.60;;;;;;5063586;28;20025;-48
2021/12/19 07:53:01;;;;;;;10.38;7.55;;;26.70;80.60;;;;;;5063088;28;20024;-49
2021/12/19 07:55:28;;;;;;;12.40;7.00;;;26.70;80.70;;;;;;5063249;28;20033;-44
2021/12/19 07:57:54;;;;;;;9.73;7.65;;;26.60;80.70;;;;;;5064218;28;20020;-50
2021/12/19 08:00:21;;;;;;;13.35;8.18;;;26.70;80.80;;;;;;5064628;28;20266;-48
2021/12/19 08:02:49;;;;;;;15.93;9.40;;;26.60;80.70;;;;;;5066151;28;20024;-49
2021/12/19 08:05:18;;;;;;;18.27;10.68;;;26.70;80.90;;;;;;5065883;28;20071;-47
2021/12/19 08:07:48;;;;;;;14.20;10.57;;;26.70;80.90;;;;;;5065013;28;20017;-50
2021/12/19 08:12:45;;;;;;;15.75;10.35;;;26.60;81.00;;;;;;5050242;28;20071;-42
2021/12/19 08:15:15;;;;;;;14.88;10.27;;;26.60;80.90;;;;;;5065731;28;20020;-53
2021/12/19 08:17:42;;;;;;;20.75;9.75;;;26.60;80.90;;;;;;5065565;28;20031;-46
2021/12/19 08:20:09;;;;;;;14.45;8.73;;;26.60;80.90;;;;;;5065820;28;20039;-48
2021/12/19 08:22:36;;;;;;;13.93;7.82;;;26.60;80.90;;;;;;5065720;28;20277;-46
2021/12/19 08:25:05;;;;;;;9.55;6.53;;;26.60;80.90;;;;;;5065630;28;20086;-50
2021/12/19 08:27:34;;;;;;;13.10;6.47;;;26.60;80.90;;;;;;5065503;28;20056;-47
2021/12/19 08:30:03;;;;;;;9.05;5.70;;;26.60;81.00;;;;;;5046530;28;20041;-45
2021/12/19 08:32:29;;;;;;;9.60;5.50;;;26.60;81.00;;;;;;5045533;28;20021;-44
2021/12/19 08:34:56;;;;;;;11.27;4.88;;;26.60;81.00;;;;;;5045398;28;20017;-49
2021/12/19 08:37:22;;;;;;;7.75;4.57;;;26.60;81.10;;;;;;5045323;28;20041;-45
2021/12/19 08:39:49;;;;;;;7.10;4.45;;;26.50;80.90;;;;;;5045464;28;20013;-46
2021/12/19 08:42:16;;;;;;;6.88;4.18;;;26.50;81.00;;;;;;5045618;28;20310;-49
2021/12/19 08:44:43;;;;;;;6.18;3.60;;;26.60;81.00;;;;;;5045347;28;20029;-45
2021/12/19 08:47:11;;;;;;;8.45;4.10;;;26.60;80.90;;;;;;5045780;28;20025;-51
2021/12/19 08:49:39;;;;;;;7.70;3.65;;;26.50;80.80;;;;;;5045294;28;20202;-48
2021/12/19 08:52:09;;;;;;;9.18;3.90;;;26.60;80.80;;;;;;5045609;28;20037;-48
2021/12/19 08:54:36;;;;;;;8.20;3.35;;;26.60;80.80;;;;;;5055918;28;20029;-50
2021/12/19 08:57:03;;;;;;;8.23;3.88;;;26.60;80.80;;;;;;5065393;28;20035;-44
2021/12/19 08:59:29;;;;;;;10.52;3.90;;;26.50;80.70;;;;;;5064866;28;20773;-44
2021/12/19 09:02:01;;;;;;;12.23;4.30;;;26.50;80.80;;;;;;5065442;28;20027;-47
2021/12/19 09:04:31;;;;;;;10.63;3.85;;;26.50;80.80;;;;;;5064751;28;20209;-46
2021/12/19 09:06:59;;;;;;;5.63;3.60;;;26.50;80.90;;;;;;5065260;28;20033;-49
2021/12/19 09:09:26;;;;;;;8.45;3.83;;;26.50;80.80;;;;;;5064794;28;20248;-41
2021/12/19 09:11:53;;;;;;;7.70;3.88;;;26.50;80.90;;;;;;5047370;28;20131;-48
2021/12/19 09:14:19;;;;;;;9.52;3.85;;;26.40;80.80;;;;;;5064774;28;20021;-46
2021/12/19 09:16:46;;;;;;;6.53;3.65;;;26.40;80.90;;;;;;5065073;28;20324;-49
2021/12/19 09:19:13;;;;;;;7.88;3.70;;;26.50;80.90;;;;;;5064579;28;20297;-46
2021/12/19 09:21:41;;;;;;;5.50;3.38;;;26.40;80.90;;;;;;5064388;28;20091;-49
2021/12/19 09:24:08;;;;;;;8.43;4.07;;;26.40;80.80;;;;;;5064573;28;20328;-48
2021/12/19 09:26:35;;;;;;;8.43;4.05;;;26.40;80.80;;;;;;5064662;28;20116;-50
2021/12/19 09:29:01;;;;;;;6.95;3.60;;;26.40;80.80;;;;;;5064274;28;20037;-48
2021/12/19 09:31:29;;;;;;;7.50;3.67;;;26.40;80.80;;;;;;5064850;28;20055;-54
2021/12/19 09:33:55;;;;;;;7.00;3.70;;;26.40;80.90;;;;;;5064201;28;20025;-44
2021/12/19 09:36:22;;;;;;;8.77;4.18;;;26.40;81.00;;;;;;5064592;28;20044;-43
2021/12/19 09:38:48;;;;;;;7.07;3.47;;;26.40;81.10;;;;;;5064320;28;20020;-49
2021/12/19 09:41:27;;;;;;;7.75;3.85;;;26.40;81.00;;;;;;5064335;28;20087;-46
2021/12/19 09:43:56;;;;;;;8.68;3.30;;;26.40;80.80;;;;;;5064186;28;20307;-47
2021/12/19 09:46:25;;;;;;;11.02;3.70;;;26.40;80.80;;;;;;5064374;28;20039;-46
2021/12/19 09:48:51;;;;;;;6.72;3.42;;;26.30;80.60;;;;;;5063925;28;20062;-58
2021/12/19 09:51:18;;;;;;;7.10;3.20;;;26.40;80.70;;;;;;5064404;28;20087;-43
2021/12/19 09:53:45;;;;;;;10.38;3.67;;;26.40;80.80;;;;;;5064143;28;20017;-53
2021/12/19 09:56:13;;;;;;;7.85;3.30;;;26.40;80.90;;;;;;5064061;28;20039;-46
2021/12/19 09:58:40;;;;;;;6.50;3.85;;;26.40;80.90;;;;;;5064171;28;20210;-42
2021/12/19 10:01:09;;;;;;;10.18;3.90;;;26.40;81.00;;;;;;5064225;28;20056;-46
2021/12/19 10:03:36;;;;;;;7.22;3.65;;;26.40;81.10;;;;;;5063789;28;20027;-48
2021/12/19 10:06:19;;;;;;;6.93;3.75;;;26.40;81.20;;;;;;5064081;28;20143;-45
2021/12/19 10:09:10;;;;;;;7.70;3.83;;;26.40;81.30;;;;;;5063780;28;20025;-45
2021/12/19 10:14:26;;;;;;;7.32;3.60;;;26.30;81.50;;;;;;5063792;28;20013;-49
2021/12/19 10:16:53;;;;;;;10.30;3.65;;;26.30;81.70;;;;;;5064044;28;20032;-40
2021/12/19 10:19:20;;;;;;;8.52;3.83;;;26.30;81.70;;;;;;5063793;28;20063;-46
2021/12/19 10:21:47;;;;;;;10.35;4.40;;;26.30;81.80;;;;;;5064067;28;20024;-49
2021/12/19 10:24:35;;;;;;;8.02;3.60;;;26.30;81.80;;;;;;5063658;28;20089;-47
2021/12/19 10:27:02;;;;;;;8.55;3.67;;;26.30;81.90;;;;;;5063971;28;20079;-50
2021/12/19 10:29:43;;;;;;;10.52;3.60;;;26.30;81.90;;;;;;5063447;28;20049;-48
2021/12/19 10:32:10;;;;;;;9.27;4.10;;;26.30;82.10;;;;;;5064528;28;20257;-45
2021/12/19 10:34:37;;;;;;;9.40;4.03;;;26.30;82.00;;;;;;5068044;28;20055;-51
2021/12/19 10:37:05;;;;;;;10.00;3.65;;;26.30;82.10;;;;;;5067993;28;20302;-44
2021/12/19 10:39:39;;;;;;;11.45;3.78;;;26.30;82.20;;;;;;5067578;28;20025;-51
2021/12/19 10:42:09;;;;;;;5.85;3.42;;;26.30;82.20;;;;;;5068023;28;20032;-46
2021/12/19 10:47:26;;;;;;;7.97;3.90;;;26.30;82.40;;;;;;5067615;28;20028;-45
2021/12/19 10:49:54;;;;;;;5.72;3.35;;;26.30;82.60;;;;;;5067319;28;20109;-50
2021/12/19 10:52:36;;;;;;;8.95;3.80;;;26.20;82.60;;;;;;5067419;28;20024;-49
2021/12/19 10:55:14;;;;;;;10.52;4.07;;;26.20;82.50;;;;;;5067187;28;20017;-50
2021/12/19 10:57:42;;;;;;;12.27;4.32;;;26.20;82.50;;;;;;5067220;28;20068;-53
2021/12/19 11:00:12;;;;;;;5.80;3.78;;;26.20;82.60;;;;;;5067100;28;20025;-48
2021/12/19 11:02:44;;;;;;;10.82;4.45;;;26.20;82.70;;;;;;5067094;28;20012;-47
2021/12/19 11:05:33;;;;;;;9.03;4.17;;;26.20;82.90;;;;;;5067100;28;20201;-48
2021/12/19 11:08:02;;;;;;;7.93;3.90;;;26.20;83.10;;;;;;5067044;28;20024;-49
2021/12/19 11:10:31;;;;;;;7.05;3.90;;;26.20;83.20;;;;;;5067199;28;20328;-45
2021/12/19 11:13:16;;;;;;;9.15;4.07;;;26.20;83.30;;;;;;5066936;28;20056;-48
2021/12/19 11:15:43;;;;;;;8.93;3.80;;;26.20;83.30;;;;;;5066938;28;20024;-48
2021/12/19 11:18:09;;;;;;;9.10;4.38;;;26.20;83.40;;;;;;5066760;28;20017;-48
2021/12/19 11:20:36;;;;;;;12.23;4.68;;;26.20;83.40;;;;;;5067078;28;20032;-50
2021/12/19 11:23:03;;;;;;;11.73;5.30;;;26.10;83.30;;;;;;5066781;28;20017;-44
2021/12/19 11:25:29;;;;;;;11.63;6.30;;;26.20;83.30;;;;;;5066819;28;20021;-46
2021/12/19 11:27:57;;;;;;;11.75;6.97;;;26.20;83.20;;;;;;5066641;28;20078;-48
2021/12/19 11:30:25;;;;;;;12.32;6.72;;;26.20;83.20;;;;;;5066822;28;20194;-48
2021/12/19 11:33:10;;;;;;;11.85;6.78;;;26.10;83.10;;;;;;5066490;28;20182;-48
2021/12/19 11:35:42;;;;;;;12.63;6.35;;;26.10;83.10;;;;;;5066727;28;20197;-48
2021/12/19 11:38:11;;;;;;;10.40;6.07;;;26.20;83.20;;;;;;5066345;28;20252;-46
2021/12/19 11:40:38;;;;;;;12.40;7.18;;;26.10;83.20;;;;;;5066604;28;20033;-48
2021/12/19 11:43:08;;;;;;;13.82;8.25;;;26.20;83.20;;;;;;5066455;28;20021;-50
2021/12/19 11:45:42;;;;;;;15.23;9.57;;;26.10;83.10;;;;;;5065711;28;20083;-48
2021/12/19 11:48:31;;;;;;;14.20;9.88;;;26.10;83.10;;;;;;5066351;28;20021;-44
2021/12/19 11:51:02;;;;;;;14.25;9.07;;;26.20;83.10;;;;;;5066309;28;20075;-50
2021/12/19 11:53:29;;;;;;;12.82;7.22;;;26.20;83.10;;;;;;5066487;28;20305;-48
2021/12/19 11:56:08;;;;;;;13.25;6.30;;;26.20;83.10;;;;;;5066201;28;20029;-52
2021/12/19 11:58:59;;;;;;;8.57;5.38;;;26.20;83.10;;;;;;5066089;28;20021;-44
2021/12/19 12:01:29;;;;;;;8.43;5.10;;;26.20;83.20;;;;;;5065327;28;20086;-46
2021/12/19 12:03:56;;;;;;;9.98;5.05;;;26.20;83.30;;;;;;5066045;28;20020;-50
2021/12/19 12:06:28;;;;;;;9.27;5.28;;;26.20;83.30;;;;;;5066105;28;20213;-49
2021/12/19 12:09:06;;;;;;;13.15;5.13;;;26.20;83.50;;;;;;5065746;28;20029;-53
2021/12/19 12:11:35;;;;;;;9.63;5.30;;;26.20;83.50;;;;;;5065969;28;20147;-47
2021/12/19 12:14:23;;;;;;;10.40;5.13;;;26.20;83.60;;;;;;5065567;28;20182;-52
2021/12/19 12:17:05;;;;;;;8.30;4.70;;;26.30;83.70;;;;;;5065583;28;20113;-41
2021/12/19 12:19:48;;;;;;;11.83;5.00;;;26.20;83.70;;;;;;5065685;28;20023;-46
2021/12/19 12:22:31;;;;;;;10.10;4.20;;;26.20;83.70;;;;;;5064330;28;20064;-47
2021/12/19 12:25:20;;;;;;;12.98;4.80;;;26.30;83.90;;;;;;5065667;28;20021;-53
2021/12/19 12:28:04;;;;;;;11.70;4.63;;;26.30;83.90;;;;;;5065423;28;20111;-47
2021/12/19 12:30:40;;;;;;;13.23;4.95;;;26.30;83.90;;;;;;5061080;28;20096;-47
2021/12/19 12:33:09;;;;;;;8.25;4.32;;;26.30;83.90;;;;;;5063453;28;20037;-49
2021/12/19 12:35:42;;;;;;;12.70;4.75;;;26.30;83.90;;;;;;5062153;28;20045;-50
2021/12/19 12:38:10;;;;;;;8.98;4.07;;;26.20;83.70;;;;;;5045467;28;20021;-45
2021/12/19 12:40:58;;;;;;;11.75;4.30;;;26.30;83.90;;;;;;5045557;28;20025;-48
2021/12/19 12:43:29;;;;;;;11.63;4.07;;;26.30;83.70;;;;;;5045237;28;20048;-47
2021/12/19 12:46:01;;;;;;;11.77;4.13;;;26.30;83.70;;;;;;5045608;28;20117;-44
2021/12/19 12:48:54;;;;;;;8.65;4.47;;;26.30;83.60;;;;;;5062171;28;20295;-47
2021/12/19 12:52:04;;;;;;;8.85;4.78;;;26.30;83.60;;;;;;5065392;28;20224;-45
2021/12/19 12:54:36;;;;;;;12.65;5.07;;;26.30;83.60;;;;;;4994865;28;20037;-51
2021/12/19 12:57:15;;;;;;;13.52;4.75;;;26.30;83.70;;;;;;5057488;28;20040;-49
2021/12/19 12:59:43;;;;;;;13.02;5.47;;;26.30;83.90;;;;;;5065334;28;20240;-47
2021/12/19 13:02:20;;;;;;;7.28;4.68;;;26.30;84.00;;;;;;5063606;28;20208;-50
2021/12/19 13:04:49;;;;;;;8.73;4.90;;;26.30;84.00;;;;;;5064974;28;20108;-47
2021/12/19 13:07:20;;;;;;;9.95;4.25;;;26.30;84.00;;;;;;5065397;28;20356;-49
2021/12/19 13:10:02;;;;;;;10.60;4.63;;;26.30;84.10;;;;;;5064696;28;20021;-45
2021/12/19 13:12:33;;;;;;;9.85;4.47;;;26.30;84.20;;;;;;5064222;28;20328;-48
2021/12/19 13:15:17;;;;;;;8.82;4.38;;;26.40;84.20;;;;;;5064535;28;20024;-54
2021/12/19 13:17:50;;;;;;;9.98;4.95;;;26.40;84.20;;;;;;5062670;28;20034;-46
2021/12/19 13:20:24;;;;;;;7.95;4.63;;;26.40;84.20;;;;;;5059873;28;20052;-46
2021/12/19 13:22:53;;;;;;;9.88;4.68;;;26.40;84.10;;;;;;5046142;28;20313;-42
2021/12/19 13:25:22;;;;;;;9.68;4.57;;;26.40;84.20;;;;;;5064530;28;20032;-49
2021/12/19 13:28:20;;;;;;;11.32;4.55;;;26.40;84.10;;;;;;5045579;28;20049;-51
2021/12/19 13:30:47;;;;;;;9.15;4.40;;;26.50;84.10;;;;;;5043637;28;20092;-54
2021/12/19 13:33:18;;;;;;;17.00;4.22;;;26.50;84.10;;;;;;5044382;28;20022;-44
2021/12/19 13:35:50;;;;;;;8.02;3.97;;;26.50;84.20;;;;;;5044408;28;20025;-47
2021/12/19 13:38:16;;;;;;;;;;;26.50;84.20;;;;;;5044596;28;20014;-50
2021/12/19 13:40:44;;;;;;;10.13;4.28;;;26.50;84.30;;;;;;5044545;28;19975;-52
2021/12/19 13:43:13;;;;;;;8.85;4.57;;;26.50;84.40;;;;;;5044115;28;20017;-50
2021/12/19 13:45:55;;;;;;;8.85;4.25;;;26.50;84.50;;;;;;5044169;28;20021;-47
2021/12/19 13:48:35;;;;;;;10.30;4.22;;;26.50;84.60;;;;;;5044123;28;20214;-49
2021/12/19 13:51:04;;;;;;;9.50;4.70;;;26.50;84.60;;;;;;5044453;28;20032;-51
2021/12/19 13:53:33;;;;;;;8.60;4.10;;;26.60;84.80;;;;;;5044063;28;20024;-47
2021/12/19 13:56:27;;;;;;;9.57;3.83;;;26.60;85.00;;;;;;5043707;28;20057;-46
2021/12/19 13:59:02;;;;;;;11.27;4.88;;;26.60;85.10;;;;;;5040459;28;20030;-42
2021/12/19 14:01:39;;;;;;;10.05;4.70;;;26.60;85.10;;;;;;5044105;28;20037;-49
2021/12/19 14:04:16;;;;;;;7.35;4.35;;;26.60;85.10;;;;;;5044297;28;20013;-44
2021/12/19 14:06:48;;;;;;;10.25;4.93;;;26.60;85.20;;;;;;5044006;28;20101;-45
2021/12/19 14:09:17;;;;;;;9.60;5.65;;;26.60;85.20;;;;;;5044121;28;20064;-49
2021/12/19 14:11:49;;;;;;;9.15;5.38;;;26.60;85.40;;;;;;5044347;28;20128;-54